Airfield :
LOGIN :

Register | Disclaimer

   EN    FR    IT 

 










Legend :    VFR   Marginal VFR   IFR   Intensive IFR   Very Intensive IFR
Visi :
Ceiling :
>= 8 km
>= 3000ft
5 to 8 km
1000 to 3000 ft
1500m to 5 km
500 to 1000 ft
800 to 1500m
200 to 500 ft
< 800m
< 200 ft
Symbols :   Thunderstorms  Fog  Heavy snow  Heavy precipitations  Wind > 20 kt
SIGMETs :     Misc.  Thunderstorms  Icing  Turbulence  Mountain Waves  Volcanic Ashes







- Airport Elevation : 778 ft
- IATA code : BRQ


LKTB - Brno-Turany

CURRENT METAR :
  • 211130Z 32010KT CAVOK 21/08 Q1021 NOSIG

EXPIRED METARs :
  • 211100Z 31011KT 280V340 CAVOK 21/08 Q1021 NOSIG
  • 211030Z 30012KT CAVOK 19/08 Q1021 NOSIG
  • 211000Z 32011KT 270V360 9999 BKN049 19/08 Q1022 NOSIG
  • 210930Z 32009KT 280V360 9999 SCT046 19/08 Q1022 NOSIG
  • 210900Z 29008KT 260V340 9999 BKN043 19/08 Q1022 NOSIG

TAF TAF LKTB
Valid from the 21 at 12:00 until the 22 at 18:00 UTC


211100Z 2112/2218 30004KT CAVOK
TEMPO 2112/2116 34016KT
TEMPO 2212/2218 32012G24KT
No reported NOTAMs for that airfield.



MET'MAP, your aeronautical weather chart ! - Copyright ORBIFLY December 2007 - Disclaimer

ORBIFLY MET'MAP TEAM :

Programming & Development : Alexandra Zaïnal
Concept & Development : Baudouin d'Aumeries
Co-Development & Prog : Marc-Olivier Méhu
Technical & hardware support : Manuel Goepfert

Contact : metmap@orbifly.com




SOURCES & CREDITS :

   NOAA